sensor_id;sensor_type;location;lat;lon;timestamp;temperature;humidity
78289;DHT22;67539;48.752;12.922;2023-04-15T00:00:10;6.30;99.90
78289;DHT22;67539;48.752;12.922;2023-04-15T00:02:39;6.30;99.90
78289;DHT22;67539;48.752;12.922;2023-04-15T00:05:08;6.30;99.90
78289;DHT22;67539;48.752;12.922;2023-04-15T00:07:36;6.30;99.90
78289;DHT22;67539;48.752;12.922;2023-04-15T00:10:05;6.30;99.90
78289;DHT22;67539;48.752;12.922;2023-04-15T00:12:33;6.30;99.90
78289;DHT22;67539;48.752;12.922;2023-04-15T00:15:01;6.30;99.90
78289;DHT22;67539;48.752;12.922;2023-04-15T00:17:31;6.30;99.90
78289;DHT22;67539;48.752;12.922;2023-04-15T00:19:59;6.30;99.90
78289;DHT22;67539;48.752;12.922;2023-04-15T00:22:28;6.30;99.90
78289;DHT22;67539;48.752;12.922;2023-04-15T00:24:57;6.30;99.90
78289;DHT22;67539;48.752;12.922;2023-04-15T00:27:25;6.30;99.90
78289;DHT22;67539;48.752;12.922;2023-04-15T00:29:53;6.30;99.90
78289;DHT22;67539;48.752;12.922;2023-04-15T00:32:22;6.20;99.90
78289;DHT22;67539;48.752;12.922;2023-04-15T00:34:51;6.20;99.90
78289;DHT22;67539;48.752;12.922;2023-04-15T00:37:19;6.20;99.90
78289;DHT22;67539;48.752;12.922;2023-04-15T00:39:48;6.20;99.90
78289;DHT22;67539;48.752;12.922;2023-04-15T00:42:17;6.20;99.90
78289;DHT22;67539;48.752;12.922;2023-04-15T00:44:45;6.20;99.90
78289;DHT22;67539;48.752;12.922;2023-04-15T00:47:15;6.20;99.90
78289;DHT22;67539;48.752;12.922;2023-04-15T00:49:44;6.20;99.90
78289;DHT22;67539;48.752;12.922;2023-04-15T00:52:14;6.20;99.90
78289;DHT22;67539;48.752;12.922;2023-04-15T00:54:42;6.20;99.90
78289;DHT22;67539;48.752;12.922;2023-04-15T00:57:10;6.20;99.90
78289;DHT22;67539;48.752;12.922;2023-04-15T00:59:39;6.10;99.90
78289;DHT22;67539;48.752;12.922;2023-04-15T01:02:07;6.20;99.90
78289;DHT22;67539;48.752;12.922;2023-04-15T01:04:35;6.10;99.90
78289;DHT22;67539;48.752;12.922;2023-04-15T01:07:04;6.10;99.90
78289;DHT22;67539;48.752;12.922;2023-04-15T01:09:34;6.10;99.90
78289;DHT22;67539;48.752;12.922;2023-04-15T01:12:02;6.10;99.90
78289;DHT22;67539;48.752;12.922;2023-04-15T01:14:31;6.10;99.90
78289;DHT22;67539;48.752;12.922;2023-04-15T01:17:00;6.10;99.90
78289;DHT22;67539;48.752;12.922;2023-04-15T01:19:28;6.10;99.90
78289;DHT22;67539;48.752;12.922;2023-04-15T01:21:57;6.10;99.90
78289;DHT22;67539;48.752;12.922;2023-04-15T01:24:26;6.00;99.90
78289;DHT22;67539;48.752;12.922;2023-04-15T01:26:56;6.10;99.90
78289;DHT22;67539;48.752;12.922;2023-04-15T01:29:25;6.10;99.90
78289;DHT22;67539;48.752;12.922;2023-04-15T01:31:54;6.00;99.90
78289;DHT22;67539;48.752;12.922;2023-04-15T01:34:25;6.00;99.90
78289;DHT22;67539;48.752;12.922;2023-04-15T01:36:53;6.00;99.90
78289;DHT22;67539;48.752;12.922;2023-04-15T01:39:21;6.00;99.90
78289;DHT22;67539;48.752;12.922;2023-04-15T01:41:50;6.00;99.90
78289;DHT22;67539;48.752;12.922;2023-04-15T01:44:19;5.90;99.90
78289;DHT22;67539;48.752;12.922;2023-04-15T01:46:47;5.90;99.90
78289;DHT22;67539;48.752;12.922;2023-04-15T01:49:16;5.90;99.90
78289;DHT22;67539;48.752;12.922;2023-04-15T01:51:44;5.90;99.90
78289;DHT22;67539;48.752;12.922;2023-04-15T01:54:12;5.90;99.90
78289;DHT22;67539;48.752;12.922;2023-04-15T01:56:40;5.90;99.90
78289;DHT22;67539;48.752;12.922;2023-04-15T01:59:09;5.90;99.90
78289;DHT22;67539;48.752;12.922;2023-04-15T02:01:38;5.90;99.90
78289;DHT22;67539;48.752;12.922;2023-04-15T02:04:07;5.90;99.90
78289;DHT22;67539;48.752;12.922;2023-04-15T02:06:42;5.90;99.90
78289;DHT22;67539;48.752;12.922;2023-04-15T02:09:11;5.90;99.90
78289;DHT22;67539;48.752;12.922;2023-04-15T02:11:39;5.90;99.90
78289;DHT22;67539;48.752;12.922;2023-04-15T02:14:07;5.90;99.90
78289;DHT22;67539;48.752;12.922;2023-04-15T02:16:35;5.90;99.90
78289;DHT22;67539;48.752;12.922;2023-04-15T02:19:05;5.80;99.90
78289;DHT22;67539;48.752;12.922;2023-04-15T02:21:36;5.90;99.90
78289;DHT22;67539;48.752;12.922;2023-04-15T02:24:05;5.90;99.90
78289;DHT22;67539;48.752;12.922;2023-04-15T02:26:33;5.90;99.90
78289;DHT22;67539;48.752;12.922;2023-04-15T02:29:02;5.90;99.90
78289;DHT22;67539;48.752;12.922;2023-04-15T02:31:32;5.90;99.90
78289;DHT22;67539;48.752;12.922;2023-04-15T02:34:02;5.90;99.90
78289;DHT22;67539;48.752;12.922;2023-04-15T02:36:32;5.90;99.90
78289;DHT22;67539;48.752;12.922;2023-04-15T02:39:01;5.90;99.90
78289;DHT22;67539;48.752;12.922;2023-04-15T02:41:30;5.90;99.90
78289;DHT22;67539;48.752;12.922;2023-04-15T02:43:58;5.90;99.90
78289;DHT22;67539;48.752;12.922;2023-04-15T02:46:29;5.90;99.90
78289;DHT22;67539;48.752;12.922;2023-04-15T02:48:58;5.90;99.90
78289;DHT22;67539;48.752;12.922;2023-04-15T02:51:29;5.90;99.90
78289;DHT22;67539;48.752;12.922;2023-04-15T02:53:59;5.90;99.90
78289;DHT22;67539;48.752;12.922;2023-04-15T02:56:27;5.90;99.90
78289;DHT22;67539;48.752;12.922;2023-04-15T02:58:56;5.90;99.90
78289;DHT22;67539;48.752;12.922;2023-04-15T03:01:24;5.90;99.90
78289;DHT22;67539;48.752;12.922;2023-04-15T03:03:53;5.90;99.90
78289;DHT22;67539;48.752;12.922;2023-04-15T03:06:21;5.90;99.90
78289;DHT22;67539;48.752;12.922;2023-04-15T03:08:50;5.90;99.90
78289;DHT22;67539;48.752;12.922;2023-04-15T03:11:20;5.90;99.90
78289;DHT22;67539;48.752;12.922;2023-04-15T03:13:49;6.00;99.90
78289;DHT22;67539;48.752;12.922;2023-04-15T03:16:31;5.90;99.90
78289;DHT22;67539;48.752;12.922;2023-04-15T03:18:59;5.90;99.90
78289;DHT22;67539;48.752;12.922;2023-04-15T03:21:28;5.90;99.90
78289;DHT22;67539;48.752;12.922;2023-04-15T03:23:56;5.90;99.90
78289;DHT22;67539;48.752;12.922;2023-04-15T03:26:27;5.90;99.90
78289;DHT22;67539;48.752;12.922;2023-04-15T03:28:59;5.90;99.90
78289;DHT22;67539;48.752;12.922;2023-04-15T03:31:27;5.90;99.90
78289;DHT22;67539;48.752;12.922;2023-04-15T03:33:55;5.90;99.90
78289;DHT22;67539;48.752;12.922;2023-04-15T03:36:24;5.90;99.90
78289;DHT22;67539;48.752;12.922;2023-04-15T03:38:52;5.90;99.90
78289;DHT22;67539;48.752;12.922;2023-04-15T03:41:21;5.90;99.90
78289;DHT22;67539;48.752;12.922;2023-04-15T03:43:51;5.90;99.90
78289;DHT22;67539;48.752;12.922;2023-04-15T03:46:20;5.90;99.90
78289;DHT22;67539;48.752;12.922;2023-04-15T03:48:48;5.90;99.90
78289;DHT22;67539;48.752;12.922;2023-04-15T03:51:16;5.90;99.90
78289;DHT22;67539;48.752;12.922;2023-04-15T03:53:44;5.90;99.90
78289;DHT22;67539;48.752;12.922;2023-04-15T03:56:12;5.90;99.90
78289;DHT22;67539;48.752;12.922;2023-04-15T03:58:40;5.80;99.90
78289;DHT22;67539;48.752;12.922;2023-04-15T04:01:10;5.80;99.90
78289;DHT22;67539;48.752;12.922;2023-04-15T04:03:38;5.80;99.90
78289;DHT22;67539;48.752;12.922;2023-04-15T04:06:06;5.80;99.90
78289;DHT22;67539;48.752;12.922;2023-04-15T04:08:35;5.80;99.90
78289;DHT22;67539;48.752;12.922;2023-04-15T04:11:03;5.80;99.90
78289;DHT22;67539;48.752;12.922;2023-04-15T04:13:32;5.80;99.90
78289;DHT22;67539;48.752;12.922;2023-04-15T04:16:00;5.70;99.90
78289;DHT22;67539;48.752;12.922;2023-04-15T04:18:30;5.70;99.90
78289;DHT22;67539;48.752;12.922;2023-04-15T04:20:58;5.70;99.90
78289;DHT22;67539;48.752;12.922;2023-04-15T04:23:26;5.70;99.90
78289;DHT22;67539;48.752;12.922;2023-04-15T04:25:54;5.70;99.90
78289;DHT22;67539;48.752;12.922;2023-04-15T04:28:22;5.70;99.90
78289;DHT22;67539;48.752;12.922;2023-04-15T04:30:50;5.70;99.90
78289;DHT22;67539;48.752;12.922;2023-04-15T04:33:19;5.70;99.90
78289;DHT22;67539;48.752;12.922;2023-04-15T04:35:48;5.70;99.90
78289;DHT22;67539;48.752;12.922;2023-04-15T04:38:16;5.70;99.90
78289;DHT22;67539;48.752;12.922;2023-04-15T04:40:44;5.70;99.90
78289;DHT22;67539;48.752;12.922;2023-04-15T04:43:12;5.70;99.90
78289;DHT22;67539;48.752;12.922;2023-04-15T04:45:41;5.60;99.90
78289;DHT22;67539;48.752;12.922;2023-04-15T04:48:09;5.60;99.90
78289;DHT22;67539;48.752;12.922;2023-04-15T04:50:38;5.60;99.90
78289;DHT22;67539;48.752;12.922;2023-04-15T04:53:07;5.60;99.90
78289;DHT22;67539;48.752;12.922;2023-04-15T04:55:35;5.60;99.90
78289;DHT22;67539;48.752;12.922;2023-04-15T04:58:03;5.60;99.90
78289;DHT22;67539;48.752;12.922;2023-04-15T05:00:31;5.60;99.90
78289;DHT22;67539;48.752;12.922;2023-04-15T05:03:00;5.60;99.90
78289;DHT22;67539;48.752;12.922;2023-04-15T05:05:28;5.60;99.90
78289;DHT22;67539;48.752;12.922;2023-04-15T05:07:57;5.50;99.90
78289;DHT22;67539;48.752;12.922;2023-04-15T05:10:26;5.50;99.90
78289;DHT22;67539;48.752;12.922;2023-04-15T05:12:54;5.50;99.90
78289;DHT22;67539;48.752;12.922;2023-04-15T05:15:22;5.50;99.90
78289;DHT22;67539;48.752;12.922;2023-04-15T05:17:51;5.50;99.90
78289;DHT22;67539;48.752;12.922;2023-04-15T05:20:19;5.40;99.90
78289;DHT22;67539;48.752;12.922;2023-04-15T05:22:47;5.50;99.90
78289;DHT22;67539;48.752;12.922;2023-04-15T05:25:16;5.50;99.90
78289;DHT22;67539;48.752;12.922;2023-04-15T05:27:45;5.50;99.90
78289;DHT22;67539;48.752;12.922;2023-04-15T05:30:14;5.50;99.90
78289;DHT22;67539;48.752;12.922;2023-04-15T05:32:42;5.50;99.90
78289;DHT22;67539;48.752;12.922;2023-04-15T05:35:10;5.50;99.90
78289;DHT22;67539;48.752;12.922;2023-04-15T05:37:38;5.50;99.90
78289;DHT22;67539;48.752;12.922;2023-04-15T05:40:07;5.50;99.90
78289;DHT22;67539;48.752;12.922;2023-04-15T05:42:37;5.50;99.90
78289;DHT22;67539;48.752;12.922;2023-04-15T05:45:07;5.50;99.90
78289;DHT22;67539;48.752;12.922;2023-04-15T05:47:35;5.50;99.90
78289;DHT22;67539;48.752;12.922;2023-04-15T05:50:05;5.50;99.90
78289;DHT22;67539;48.752;12.922;2023-04-15T05:52:34;5.60;99.90
78289;DHT22;67539;48.752;12.922;2023-04-15T05:55:03;5.60;99.90
78289;DHT22;67539;48.752;12.922;2023-04-15T05:57:31;5.60;99.90
78289;DHT22;67539;48.752;12.922;2023-04-15T05:59:59;5.60;99.90
78289;DHT22;67539;48.752;12.922;2023-04-15T06:02:36;5.60;99.90
78289;DHT22;67539;48.752;12.922;2023-04-15T06:05:05;5.60;99.90
78289;DHT22;67539;48.752;12.922;2023-04-15T06:07:36;5.70;99.90
78289;DHT22;67539;48.752;12.922;2023-04-15T06:10:06;5.70;99.90
78289;DHT22;67539;48.752;12.922;2023-04-15T06:12:34;5.70;99.90
78289;DHT22;67539;48.752;12.922;2023-04-15T06:15:02;5.70;99.90
78289;DHT22;67539;48.752;12.922;2023-04-15T06:17:32;5.60;99.90
78289;DHT22;67539;48.752;12.922;2023-04-15T06:20:02;5.70;99.90
78289;DHT22;67539;48.752;12.922;2023-04-15T06:22:30;5.70;99.90
78289;DHT22;67539;48.752;12.922;2023-04-15T06:24:58;5.70;99.90
78289;DHT22;67539;48.752;12.922;2023-04-15T06:27:27;5.60;99.90
78289;DHT22;67539;48.752;12.922;2023-04-15T06:29:55;5.60;99.90
78289;DHT22;67539;48.752;12.922;2023-04-15T06:32:23;5.60;99.90
78289;DHT22;67539;48.752;12.922;2023-04-15T06:34:52;5.60;99.90
78289;DHT22;67539;48.752;12.922;2023-04-15T06:37:21;5.60;99.90
78289;DHT22;67539;48.752;12.922;2023-04-15T06:39:49;5.60;99.90
78289;DHT22;67539;48.752;12.922;2023-04-15T06:42:18;5.60;99.90
78289;DHT22;67539;48.752;12.922;2023-04-15T06:44:47;5.60;99.90
78289;DHT22;67539;48.752;12.922;2023-04-15T06:47:16;5.50;99.90
78289;DHT22;67539;48.752;12.922;2023-04-15T06:49:44;5.50;99.90
78289;DHT22;67539;48.752;12.922;2023-04-15T06:52:12;5.60;99.90
78289;DHT22;67539;48.752;12.922;2023-04-15T06:54:43;5.60;99.90
78289;DHT22;67539;48.752;12.922;2023-04-15T06:57:11;5.60;99.90
78289;DHT22;67539;48.752;12.922;2023-04-15T06:59:40;5.70;99.90
78289;DHT22;67539;48.752;12.922;2023-04-15T07:02:11;5.60;99.90
78289;DHT22;67539;48.752;12.922;2023-04-15T07:04:40;5.70;99.90
78289;DHT22;67539;48.752;12.922;2023-04-15T07:07:08;5.70;99.90
78289;DHT22;67539;48.752;12.922;2023-04-15T07:09:37;5.70;99.90
78289;DHT22;67539;48.752;12.922;2023-04-15T07:12:06;5.70;99.90
78289;DHT22;67539;48.752;12.922;2023-04-15T07:14:34;5.70;99.90
78289;DHT22;67539;48.752;12.922;2023-04-15T07:17:03;5.70;99.90
78289;DHT22;67539;48.752;12.922;2023-04-15T07:19:32;5.70;99.90
78289;DHT22;67539;48.752;12.922;2023-04-15T07:22:00;5.70;99.90
78289;DHT22;67539;48.752;12.922;2023-04-15T07:24:29;5.70;99.90
78289;DHT22;67539;48.752;12.922;2023-04-15T07:26:57;5.70;99.90
78289;DHT22;67539;48.752;12.922;2023-04-15T07:29:28;5.70;99.90
78289;DHT22;67539;48.752;12.922;2023-04-15T07:31:57;5.70;99.90
78289;DHT22;67539;48.752;12.922;2023-04-15T07:34:25;5.70;99.90
78289;DHT22;67539;48.752;12.922;2023-04-15T07:36:56;5.70;99.90
78289;DHT22;67539;48.752;12.922;2023-04-15T07:39:24;5.70;99.90
78289;DHT22;67539;48.752;12.922;2023-04-15T07:41:52;5.70;99.90
78289;DHT22;67539;48.752;12.922;2023-04-15T07:44:21;5.70;99.90
78289;DHT22;67539;48.752;12.922;2023-04-15T07:46:50;5.70;99.90
78289;DHT22;67539;48.752;12.922;2023-04-15T07:49:18;5.70;99.90
78289;DHT22;67539;48.752;12.922;2023-04-15T07:51:47;5.80;99.90
78289;DHT22;67539;48.752;12.922;2023-04-15T07:54:16;5.80;99.90
78289;DHT22;67539;48.752;12.922;2023-04-15T07:56:44;5.80;99.90
78289;DHT22;67539;48.752;12.922;2023-04-15T07:59:12;5.90;99.90
78289;DHT22;67539;48.752;12.922;2023-04-15T08:01:43;5.90;99.90
78289;DHT22;67539;48.752;12.922;2023-04-15T08:04:13;5.90;99.90
78289;DHT22;67539;48.752;12.922;2023-04-15T08:06:41;5.90;99.90
78289;DHT22;67539;48.752;12.922;2023-04-15T08:09:09;6.00;99.90
78289;DHT22;67539;48.752;12.922;2023-04-15T08:11:37;6.10;99.90
78289;DHT22;67539;48.752;12.922;2023-04-15T08:14:06;6.10;99.90
78289;DHT22;67539;48.752;12.922;2023-04-15T08:16:36;6.00;99.90
78289;DHT22;67539;48.752;12.922;2023-04-15T08:19:04;6.00;99.90
78289;DHT22;67539;48.752;12.922;2023-04-15T08:21:33;6.00;99.90
78289;DHT22;67539;48.752;12.922;2023-04-15T08:24:01;6.10;99.90
78289;DHT22;67539;48.752;12.922;2023-04-15T08:26:29;6.00;99.90
78289;DHT22;67539;48.752;12.922;2023-04-15T08:28:57;6.00;99.90
78289;DHT22;67539;48.752;12.922;2023-04-15T08:31:27;6.00;99.90
78289;DHT22;67539;48.752;12.922;2023-04-15T08:33:56;6.00;99.90
78289;DHT22;67539;48.752;12.922;2023-04-15T08:36:25;5.90;99.90
78289;DHT22;67539;48.752;12.922;2023-04-15T08:38:55;5.90;99.90
78289;DHT22;67539;48.752;12.922;2023-04-15T08:41:24;5.90;99.90
78289;DHT22;67539;48.752;12.922;2023-04-15T08:43:55;5.80;99.90
78289;DHT22;67539;48.752;12.922;2023-04-15T08:46:24;5.80;99.90
78289;DHT22;67539;48.752;12.922;2023-04-15T08:48:55;5.80;99.90
78289;DHT22;67539;48.752;12.922;2023-04-15T08:51:24;5.80;99.90
78289;DHT22;67539;48.752;12.922;2023-04-15T08:53:55;5.80;99.90
78289;DHT22;67539;48.752;12.922;2023-04-15T08:56:24;5.80;99.90
78289;DHT22;67539;48.752;12.922;2023-04-15T08:58:53;5.80;99.90
78289;DHT22;67539;48.752;12.922;2023-04-15T09:01:22;5.90;99.90
78289;DHT22;67539;48.752;12.922;2023-04-15T09:03:51;5.90;99.90
78289;DHT22;67539;48.752;12.922;2023-04-15T09:06:21;6.00;99.90
78289;DHT22;67539;48.752;12.922;2023-04-15T09:08:49;6.00;99.90
78289;DHT22;67539;48.752;12.922;2023-04-15T09:11:20;6.00;99.90
78289;DHT22;67539;48.752;12.922;2023-04-15T09:13:48;6.00;99.90
78289;DHT22;67539;48.752;12.922;2023-04-15T09:16:17;6.00;99.90
78289;DHT22;67539;48.752;12.922;2023-04-15T09:18:46;6.00;99.90
78289;DHT22;67539;48.752;12.922;2023-04-15T09:21:15;6.10;99.90
78289;DHT22;67539;48.752;12.922;2023-04-15T09:23:54;6.10;99.90
78289;DHT22;67539;48.752;12.922;2023-04-15T09:26:34;6.20;99.90
78289;DHT22;67539;48.752;12.922;2023-04-15T09:29:04;6.30;99.90
78289;DHT22;67539;48.752;12.922;2023-04-15T09:31:33;6.30;99.90
78289;DHT22;67539;48.752;12.922;2023-04-15T09:34:02;6.40;99.90
78289;DHT22;67539;48.752;12.922;2023-04-15T09:36:39;6.30;99.90
78289;DHT22;67539;48.752;12.922;2023-04-15T09:39:18;6.30;99.90
78289;DHT22;67539;48.752;12.922;2023-04-15T09:42:03;6.40;99.90
78289;DHT22;67539;48.752;12.922;2023-04-15T09:44:32;6.30;99.90
78289;DHT22;67539;48.752;12.922;2023-04-15T09:47:00;6.30;99.90
78289;DHT22;67539;48.752;12.922;2023-04-15T09:49:28;6.40;99.90
78289;DHT22;67539;48.752;12.922;2023-04-15T09:51:58;6.40;99.90
78289;DHT22;67539;48.752;12.922;2023-04-15T09:54:33;6.40;99.90
78289;DHT22;67539;48.752;12.922;2023-04-15T09:57:08;6.40;99.90
78289;DHT22;67539;48.752;12.922;2023-04-15T09:59:38;6.40;99.90
78289;DHT22;67539;48.752;12.922;2023-04-15T10:02:06;6.40;99.90
78289;DHT22;67539;48.752;12.922;2023-04-15T10:04:36;6.40;99.90
78289;DHT22;67539;48.752;12.922;2023-04-15T10:07:07;6.40;99.90
78289;DHT22;67539;48.752;12.922;2023-04-15T10:09:38;6.40;99.90
78289;DHT22;67539;48.752;12.922;2023-04-15T10:12:08;6.40;99.90
78289;DHT22;67539;48.752;12.922;2023-04-15T10:14:37;6.40;99.90
78289;DHT22;67539;48.752;12.922;2023-04-15T10:17:07;6.50;99.90
78289;DHT22;67539;48.752;12.922;2023-04-15T10:19:38;6.50;99.90
78289;DHT22;67539;48.752;12.922;2023-04-15T10:22:07;6.50;99.90
78289;DHT22;67539;48.752;12.922;2023-04-15T10:24:35;6.50;99.90
78289;DHT22;67539;48.752;12.922;2023-04-15T10:27:07;6.50;99.90
78289;DHT22;67539;48.752;12.922;2023-04-15T10:29:36;6.50;99.90
78289;DHT22;67539;48.752;12.922;2023-04-15T10:32:04;6.40;99.90
78289;DHT22;67539;48.752;12.922;2023-04-15T10:34:33;6.50;99.90
78289;DHT22;67539;48.752;12.922;2023-04-15T10:37:02;6.50;99.90
78289;DHT22;67539;48.752;12.922;2023-04-15T10:39:42;6.60;99.90
78289;DHT22;67539;48.752;12.922;2023-04-15T10:42:13;6.60;99.90
78289;DHT22;67539;48.752;12.922;2023-04-15T10:44:43;6.70;99.90
78289;DHT22;67539;48.752;12.922;2023-04-15T10:47:13;6.70;99.90
78289;DHT22;67539;48.752;12.922;2023-04-15T10:49:46;6.80;99.90
78289;DHT22;67539;48.752;12.922;2023-04-15T10:52:15;6.90;99.90
78289;DHT22;67539;48.752;12.922;2023-04-15T10:54:44;6.90;99.90
78289;DHT22;67539;48.752;12.922;2023-04-15T10:57:16;6.90;99.90
78289;DHT22;67539;48.752;12.922;2023-04-15T11:00:09;6.90;99.90
78289;DHT22;67539;48.752;12.922;2023-04-15T11:02:39;7.00;99.90
78289;DHT22;67539;48.752;12.922;2023-04-15T11:05:08;7.00;99.90
78289;DHT22;67539;48.752;12.922;2023-04-15T11:07:39;7.00;99.90
78289;DHT22;67539;48.752;12.922;2023-04-15T11:13:24;7.00;99.90
78289;DHT22;67539;48.752;12.922;2023-04-15T11:15:56;7.00;99.90
78289;DHT22;67539;48.752;12.922;2023-04-15T11:18:27;7.00;99.90
78289;DHT22;67539;48.752;12.922;2023-04-15T11:20:58;7.00;99.90
78289;DHT22;67539;48.752;12.922;2023-04-15T11:23:29;7.00;99.90
78289;DHT22;67539;48.752;12.922;2023-04-15T11:25:58;7.10;99.90
78289;DHT22;67539;48.752;12.922;2023-04-15T11:28:29;7.10;99.90
78289;DHT22;67539;48.752;12.922;2023-04-15T11:31:06;7.10;99.90
78289;DHT22;67539;48.752;12.922;2023-04-15T11:33:37;7.10;99.90
78289;DHT22;67539;48.752;12.922;2023-04-15T11:36:06;7.00;99.90
78289;DHT22;67539;48.752;12.922;2023-04-15T11:38:34;7.10;99.90
78289;DHT22;67539;48.752;12.922;2023-04-15T11:41:03;7.10;99.90
78289;DHT22;67539;48.752;12.922;2023-04-15T11:43:33;7.10;99.90
78289;DHT22;67539;48.752;12.922;2023-04-15T11:46:02;7.20;99.90
78289;DHT22;67539;48.752;12.922;2023-04-15T11:48:32;7.30;99.90
78289;DHT22;67539;48.752;12.922;2023-04-15T11:51:02;7.30;99.90
78289;DHT22;67539;48.752;12.922;2023-04-15T11:53:38;7.20;99.90
78289;DHT22;67539;48.752;12.922;2023-04-15T11:56:08;7.20;99.90
78289;DHT22;67539;48.752;12.922;2023-04-15T11:58:38;7.10;99.90
78289;DHT22;67539;48.752;12.922;2023-04-15T12:01:06;7.20;99.90
78289;DHT22;67539;48.752;12.922;2023-04-15T12:03:39;7.20;99.90
78289;DHT22;67539;48.752;12.922;2023-04-15T12:06:10;7.30;99.90
78289;DHT22;67539;48.752;12.922;2023-04-15T12:11:43;7.30;99.90
78289;DHT22;67539;48.752;12.922;2023-04-15T12:14:19;7.30;99.90
78289;DHT22;67539;48.752;12.922;2023-04-15T12:16:49;7.30;99.90
78289;DHT22;67539;48.752;12.922;2023-04-15T12:19:22;7.40;99.90
78289;DHT22;67539;48.752;12.922;2023-04-15T12:21:53;7.40;99.90
78289;DHT22;67539;48.752;12.922;2023-04-15T12:24:26;7.40;99.90
78289;DHT22;67539;48.752;12.922;2023-04-15T12:26:56;7.40;99.90
78289;DHT22;67539;48.752;12.922;2023-04-15T12:29:27;7.40;99.90
78289;DHT22;67539;48.752;12.922;2023-04-15T12:31:57;7.50;99.90
78289;DHT22;67539;48.752;12.922;2023-04-15T12:34:27;7.60;99.90
78289;DHT22;67539;48.752;12.922;2023-04-15T12:36:56;7.60;99.90
78289;DHT22;67539;48.752;12.922;2023-04-15T12:39:26;7.60;99.90
78289;DHT22;67539;48.752;12.922;2023-04-15T12:41:57;7.60;99.90
78289;DHT22;67539;48.752;12.922;2023-04-15T12:44:28;7.70;99.90
78289;DHT22;67539;48.752;12.922;2023-04-15T12:46:56;7.70;99.90
78289;DHT22;67539;48.752;12.922;2023-04-15T12:49:26;7.70;99.90
78289;DHT22;67539;48.752;12.922;2023-04-15T12:51:56;7.70;99.90
78289;DHT22;67539;48.752;12.922;2023-04-15T12:54:26;7.70;99.90
78289;DHT22;67539;48.752;12.922;2023-04-15T12:56:54;7.60;99.90
78289;DHT22;67539;48.752;12.922;2023-04-15T12:59:23;7.60;99.90
78289;DHT22;67539;48.752;12.922;2023-04-15T13:01:53;7.60;99.90
78289;DHT22;67539;48.752;12.922;2023-04-15T13:04:21;7.60;99.90
78289;DHT22;67539;48.752;12.922;2023-04-15T13:06:49;7.60;99.90
78289;DHT22;67539;48.752;12.922;2023-04-15T13:09:19;7.50;99.90
78289;DHT22;67539;48.752;12.922;2023-04-15T13:11:47;7.60;99.90
78289;DHT22;67539;48.752;12.922;2023-04-15T13:14:16;7.50;99.90
78289;DHT22;67539;48.752;12.922;2023-04-15T13:16:44;7.50;99.90
78289;DHT22;67539;48.752;12.922;2023-04-15T13:19:14;7.50;99.90
78289;DHT22;67539;48.752;12.922;2023-04-15T13:21:42;7.50;99.90
78289;DHT22;67539;48.752;12.922;2023-04-15T13:24:10;7.50;99.90
78289;DHT22;67539;48.752;12.922;2023-04-15T13:26:38;7.50;99.90
78289;DHT22;67539;48.752;12.922;2023-04-15T13:29:06;7.50;99.90
78289;DHT22;67539;48.752;12.922;2023-04-15T13:31:34;7.60;99.90
78289;DHT22;67539;48.752;12.922;2023-04-15T13:34:03;7.50;99.90
78289;DHT22;67539;48.752;12.922;2023-04-15T13:36:33;7.50;99.90
78289;DHT22;67539;48.752;12.922;2023-04-15T13:39:01;7.60;99.90
78289;DHT22;67539;48.752;12.922;2023-04-15T13:41:31;7.60;99.90
78289;DHT22;67539;48.752;12.922;2023-04-15T13:43:59;7.60;99.90
78289;DHT22;67539;48.752;12.922;2023-04-15T13:46:27;7.60;99.90
78289;DHT22;67539;48.752;12.922;2023-04-15T13:48:55;7.70;99.90
78289;DHT22;67539;48.752;12.922;2023-04-15T13:51:23;7.80;99.90
78289;DHT22;67539;48.752;12.922;2023-04-15T13:53:54;7.80;99.90
78289;DHT22;67539;48.752;12.922;2023-04-15T13:56:23;7.80;99.90
78289;DHT22;67539;48.752;12.922;2023-04-15T13:58:51;7.80;99.90
78289;DHT22;67539;48.752;12.922;2023-04-15T14:01:21;7.80;99.90
78289;DHT22;67539;48.752;12.922;2023-04-15T14:03:49;7.80;99.90
78289;DHT22;67539;48.752;12.922;2023-04-15T14:06:17;7.80;99.90
78289;DHT22;67539;48.752;12.922;2023-04-15T14:08:45;7.90;99.90
78289;DHT22;67539;48.752;12.922;2023-04-15T14:11:15;7.90;99.90
78289;DHT22;67539;48.752;12.922;2023-04-15T14:13:43;7.90;99.90
78289;DHT22;67539;48.752;12.922;2023-04-15T14:16:11;7.90;99.90
78289;DHT22;67539;48.752;12.922;2023-04-15T14:18:40;7.80;99.90
78289;DHT22;67539;48.752;12.922;2023-04-15T14:21:08;7.90;99.90
78289;DHT22;67539;48.752;12.922;2023-04-15T14:23:36;7.90;99.90
78289;DHT22;67539;48.752;12.922;2023-04-15T14:26:04;7.80;99.90
78289;DHT22;67539;48.752;12.922;2023-04-15T14:28:34;7.80;99.90
78289;DHT22;67539;48.752;12.922;2023-04-15T14:31:04;7.80;99.90
78289;DHT22;67539;48.752;12.922;2023-04-15T14:33:32;7.80;99.90
78289;DHT22;67539;48.752;12.922;2023-04-15T14:36:00;7.80;99.90
78289;DHT22;67539;48.752;12.922;2023-04-15T14:38:30;7.80;99.90
78289;DHT22;67539;48.752;12.922;2023-04-15T14:40:59;7.80;99.90
78289;DHT22;67539;48.752;12.922;2023-04-15T14:43:27;7.80;99.90
78289;DHT22;67539;48.752;12.922;2023-04-15T14:45:57;7.80;99.90
78289;DHT22;67539;48.752;12.922;2023-04-15T14:48:25;7.90;99.90
78289;DHT22;67539;48.752;12.922;2023-04-15T14:50:53;7.90;99.90
78289;DHT22;67539;48.752;12.922;2023-04-15T14:53:21;8.00;99.90
78289;DHT22;67539;48.752;12.922;2023-04-15T14:55:50;8.00;99.90
78289;DHT22;67539;48.752;12.922;2023-04-15T14:58:18;8.10;99.90
78289;DHT22;67539;48.752;12.922;2023-04-15T15:00:46;8.10;99.90
78289;DHT22;67539;48.752;12.922;2023-04-15T15:03:16;8.10;99.90
78289;DHT22;67539;48.752;12.922;2023-04-15T15:05:45;8.00;99.90
78289;DHT22;67539;48.752;12.922;2023-04-15T15:08:14;8.00;99.90
78289;DHT22;67539;48.752;12.922;2023-04-15T15:10:42;8.00;99.90
78289;DHT22;67539;48.752;12.922;2023-04-15T15:13:15;8.00;99.90
78289;DHT22;67539;48.752;12.922;2023-04-15T15:15:44;8.10;99.90
78289;DHT22;67539;48.752;12.922;2023-04-15T15:18:16;8.10;99.90
78289;DHT22;67539;48.752;12.922;2023-04-15T15:20:46;8.10;99.90
78289;DHT22;67539;48.752;12.922;2023-04-15T15:23:14;8.10;99.90
78289;DHT22;67539;48.752;12.922;2023-04-15T15:25:42;8.00;99.90
78289;DHT22;67539;48.752;12.922;2023-04-15T15:28:11;8.00;99.90
78289;DHT22;67539;48.752;12.922;2023-04-15T15:30:39;8.10;99.90
78289;DHT22;67539;48.752;12.922;2023-04-15T15:33:07;8.00;99.90
78289;DHT22;67539;48.752;12.922;2023-04-15T15:35:37;8.00;99.90
78289;DHT22;67539;48.752;12.922;2023-04-15T15:38:06;8.00;99.90
78289;DHT22;67539;48.752;12.922;2023-04-15T15:40:34;7.90;99.90
78289;DHT22;67539;48.752;12.922;2023-04-15T15:43:02;7.90;99.90
78289;DHT22;67539;48.752;12.922;2023-04-15T15:45:31;7.90;99.90
78289;DHT22;67539;48.752;12.922;2023-04-15T15:48:00;7.90;99.90